createdAt,value
2023-01-31T00:00:28.580Z,5.43
2023-01-31T00:02:56.058Z,5.31
2023-01-31T00:05:23.233Z,5.15
2023-01-31T00:07:50.433Z,5.38
2023-01-31T00:10:17.864Z,4.94
2023-01-31T00:12:45.011Z,5.07
2023-01-31T00:15:13.512Z,5.32
2023-01-31T00:17:40.921Z,5.19
2023-01-31T00:20:08.642Z,5.26
2023-01-31T00:22:36.200Z,5.37
2023-01-31T00:25:04.119Z,4.92
2023-01-31T00:27:31.295Z,5.34
2023-01-31T00:29:58.502Z,5.29
2023-01-31T00:32:26.895Z,5.07
2023-01-31T00:34:54.406Z,5.53
2023-01-31T00:37:21.915Z,5.12
2023-01-31T00:39:49.441Z,5.37
2023-01-31T00:42:17.209Z,5.75
2023-01-31T00:44:44.418Z,5.53
2023-01-31T00:47:11.856Z,5.72
2023-01-31T00:49:38.991Z,5.94
2023-01-31T00:52:06.494Z,6.15
2023-01-31T00:54:34.258Z,5.95
2023-01-31T00:57:01.571Z,5.89
2023-01-31T00:59:29.034Z,6.10
2023-01-31T01:01:56.538Z,5.80
2023-01-31T01:04:23.770Z,5.68
2023-01-31T01:06:51.904Z,5.75
2023-01-31T01:09:19.328Z,5.77
2023-01-31T01:11:47.951Z,5.75
2023-01-31T01:14:15.400Z,5.87
2023-01-31T01:16:43.163Z,5.63
2023-01-31T01:19:15.369Z,5.60
2023-01-31T01:21:44.352Z,5.64
2023-01-31T01:24:13.425Z,5.47
2023-01-31T01:26:40.681Z,5.67
2023-01-31T01:29:08.293Z,6.04
2023-01-31T01:31:35.937Z,5.53
2023-01-31T01:34:05.355Z,5.57
2023-01-31T01:36:34.677Z,5.68
2023-01-31T01:39:02.190Z,5.12
2023-01-31T01:41:29.982Z,5.52
2023-01-31T01:43:58.216Z,5.51
2023-01-31T01:46:27.225Z,5.32
2023-01-31T01:48:56.505Z,5.61
2023-01-31T01:51:23.985Z,5.54
2023-01-31T01:53:53.032Z,6.07
2023-01-31T01:56:22.053Z,5.94
2023-01-31T01:59:24.267Z,6.01
2023-01-31T02:01:51.480Z,6.30
2023-01-31T02:04:20.562Z,5.67
2023-01-31T02:06:47.740Z,5.77
2023-01-31T02:09:17.677Z,5.17
2023-01-31T02:11:45.110Z,5.31
2023-01-31T02:14:12.744Z,5.46
2023-01-31T02:16:39.999Z,5.52
2023-01-31T02:19:09.612Z,5.87
2023-01-31T02:21:56.308Z,5.24
2023-01-31T02:24:38.687Z,5.67
2023-01-31T02:27:21.216Z,5.51
2023-01-31T02:30:06.918Z,6.17
2023-01-31T02:32:53.065Z,6.02
2023-01-31T02:35:26.204Z,5.75
2023-01-31T02:37:57.809Z,5.81
2023-01-31T02:40:25.390Z,5.42
2023-01-31T02:43:02.772Z,5.88
2023-01-31T02:45:36.705Z,5.77
2023-01-31T02:48:24.003Z,6.11
2023-01-31T02:50:58.134Z,6.15
2023-01-31T02:53:29.841Z,6.21
2023-01-31T02:56:17.259Z,6.69
2023-01-31T02:58:50.851Z,6.85
2023-01-31T03:01:21.824Z,6.39
2023-01-31T03:03:50.807Z,7.28
2023-01-31T03:06:23.161Z,7.24
2023-01-31T03:08:51.895Z,6.49
2023-01-31T03:11:19.422Z,6.59
2023-01-31T03:13:51.268Z,6.44
2023-01-31T03:16:39.524Z,6.79
2023-01-31T03:19:13.952Z,6.79
2023-01-31T03:21:44.639Z,6.95
2023-01-31T03:24:11.901Z,6.22
2023-01-31T03:26:39.082Z,6.05
2023-01-31T03:29:07.381Z,6.05
2023-01-31T03:31:36.986Z,6.40
2023-01-31T03:34:05.346Z,6.38
2023-01-31T03:36:38.948Z,6.00
2023-01-31T03:39:11.018Z,6.08
2023-01-31T03:41:38.794Z,5.97
2023-01-31T03:44:10.486Z,6.26
2023-01-31T03:46:39.711Z,6.38
2023-01-31T03:49:08.976Z,6.39
2023-01-31T03:51:37.145Z,6.14
2023-01-31T03:54:09.039Z,5.93
2023-01-31T03:56:43.721Z,5.75
2023-01-31T03:59:13.077Z,5.73
2023-01-31T04:01:41.736Z,5.96
2023-01-31T04:04:10.909Z,6.37
2023-01-31T04:06:38.206Z,5.94
2023-01-31T04:09:06.243Z,6.12
2023-01-31T04:11:36.909Z,5.74
2023-01-31T04:14:04.095Z,6.28
2023-01-31T04:16:31.307Z,6.03
2023-01-31T04:18:58.766Z,5.20
2023-01-31T04:21:25.975Z,5.67
2023-01-31T04:23:53.172Z,5.51
2023-01-31T04:26:20.637Z,5.80
2023-01-31T04:28:47.827Z,5.71
2023-01-31T04:31:15.138Z,5.73
2023-01-31T04:33:42.663Z,5.60
2023-01-31T04:36:10.146Z,6.06
2023-01-31T04:38:37.475Z,6.39
2023-01-31T04:41:04.923Z,6.17
2023-01-31T04:43:32.066Z,6.35
2023-01-31T04:45:59.287Z,5.99
2023-01-31T04:48:28.921Z,5.53
2023-01-31T04:50:56.224Z,5.53
2023-01-31T04:53:23.403Z,5.42
2023-01-31T04:55:53.817Z,5.04
2023-01-31T04:58:21.204Z,5.04
2023-01-31T05:00:48.464Z,5.30
2023-01-31T05:03:15.921Z,5.05
2023-01-31T05:05:43.112Z,5.01
2023-01-31T05:08:10.265Z,5.29
2023-01-31T05:10:37.859Z,5.56
2023-01-31T05:13:05.115Z,5.47
2023-01-31T05:15:32.895Z,5.23
2023-01-31T05:18:03.410Z,5.57
2023-01-31T05:20:31.500Z,6.15
2023-01-31T05:22:58.664Z,5.87
2023-01-31T05:25:26.127Z,5.18
2023-01-31T05:27:53.443Z,5.59
2023-01-31T05:30:20.822Z,5.66
2023-01-31T05:32:49.802Z,5.93
2023-01-31T05:35:17.346Z,6.51
2023-01-31T05:37:44.849Z,6.25
2023-01-31T05:40:13.364Z,6.82
2023-01-31T05:42:40.594Z,6.86
2023-01-31T05:45:08.067Z,6.34
2023-01-31T05:47:35.568Z,6.58
2023-01-31T05:50:03.200Z,6.73
2023-01-31T05:52:30.966Z,7.42
2023-01-31T05:54:58.520Z,7.42
2023-01-31T05:57:25.699Z,7.41
2023-01-31T05:59:52.917Z,7.33
2023-01-31T06:02:20.484Z,7.65
2023-01-31T06:04:48.007Z,7.82
2023-01-31T06:07:15.414Z,7.99
2023-01-31T06:09:42.667Z,7.98
2023-01-31T06:12:14.385Z,7.70
2023-01-31T06:14:41.613Z,7.78
2023-01-31T06:17:09.644Z,7.49
2023-01-31T06:19:37.245Z,7.29
2023-01-31T06:22:07.513Z,6.78
2023-01-31T06:24:34.783Z,6.50
2023-01-31T06:27:02.196Z,6.52
2023-01-31T06:29:29.412Z,6.61
2023-01-31T06:31:56.631Z,7.30
2023-01-31T06:34:24.040Z,6.85
2023-01-31T06:36:51.387Z,7.37
2023-01-31T06:39:18.566Z,7.19
2023-01-31T06:41:46.055Z,7.11
2023-01-31T06:44:13.232Z,7.56
2023-01-31T06:46:40.452Z,7.83
2023-01-31T06:49:07.873Z,7.76
2023-01-31T06:51:35.098Z,7.59
2023-01-31T06:54:02.469Z,8.36
2023-01-31T06:56:30.428Z,9.17
2023-01-31T06:58:57.676Z,9.19
2023-01-31T07:01:26.303Z,8.60
2023-01-31T07:03:54.360Z,8.84
2023-01-31T07:06:22.997Z,8.95
2023-01-31T07:08:50.284Z,8.54
2023-01-31T07:11:17.688Z,8.17
2023-01-31T07:13:47.846Z,9.01
2023-01-31T07:16:16.949Z,8.92
2023-01-31T07:18:44.534Z,9.03
2023-01-31T07:21:11.722Z,9.08
2023-01-31T07:23:38.969Z,9.10
2023-01-31T07:26:06.450Z,9.32
2023-01-31T07:28:33.626Z,9.92
2023-01-31T07:31:05.372Z,10.34
2023-01-31T07:33:33.468Z,10.90
2023-01-31T07:36:04.699Z,11.73
2023-01-31T07:38:32.601Z,10.18
2023-01-31T07:41:03.696Z,10.93
2023-01-31T07:43:32.004Z,11.68
2023-01-31T07:45:59.590Z,11.39
2023-01-31T07:48:27.253Z,11.87
2023-01-31T07:50:58.762Z,11.79
2023-01-31T07:53:27.858Z,11.23
2023-01-31T07:55:55.155Z,10.19
2023-01-31T07:58:22.414Z,10.37
2023-01-31T08:01:08.310Z,10.80
2023-01-31T08:03:36.748Z,11.15
2023-01-31T08:06:06.069Z,11.01
2023-01-31T08:08:33.320Z,10.21
2023-01-31T08:11:00.916Z,10.83
2023-01-31T08:13:28.144Z,10.48
2023-01-31T08:15:55.359Z,10.25
2023-01-31T08:18:22.995Z,10.39
2023-01-31T08:20:50.173Z,10.29
2023-01-31T08:23:17.446Z,9.89
2023-01-31T08:25:44.955Z,10.66
2023-01-31T08:28:12.222Z,10.84
2023-01-31T08:30:40.949Z,10.98
2023-01-31T08:33:08.990Z,10.44
2023-01-31T08:35:36.393Z,10.17
2023-01-31T08:38:15.956Z,10.32
2023-01-31T08:40:43.935Z,10.37
2023-01-31T08:43:11.196Z,10.37
2023-01-31T08:45:38.416Z,10.31
2023-01-31T08:48:05.972Z,10.42
2023-01-31T08:50:33.388Z,10.53
2023-01-31T08:53:04.470Z,10.85
2023-01-31T08:55:32.539Z,10.69
2023-01-31T08:58:00.573Z,10.71
2023-01-31T09:00:28.928Z,11.09
2023-01-31T09:02:57.513Z,11.34
2023-01-31T09:05:25.594Z,11.25
2023-01-31T09:07:52.979Z,11.99
2023-01-31T09:10:21.029Z,10.85
2023-01-31T09:12:48.318Z,10.69
2023-01-31T09:15:42.793Z,11.35
2023-01-31T09:18:10.349Z,10.33
2023-01-31T09:20:37.704Z,9.89
2023-01-31T09:23:04.886Z,9.52
2023-01-31T09:25:44.830Z,10.09
2023-01-31T09:28:13.993Z,8.54
2023-01-31T09:30:41.474Z,9.07
2023-01-31T09:33:08.664Z,8.46
2023-01-31T09:35:35.827Z,8.56
2023-01-31T09:38:03.277Z,8.33
2023-01-31T09:40:31.943Z,8.24
2023-01-31T09:43:01.893Z,8.70
2023-01-31T09:45:33.348Z,8.30
2023-01-31T09:48:01.068Z,9.28
2023-01-31T09:50:41.331Z,10.79
2023-01-31T09:53:21.635Z,11.18
2023-01-31T09:55:48.757Z,11.00
2023-01-31T09:58:18.902Z,10.89
2023-01-31T10:00:47.175Z,11.82
2023-01-31T10:03:33.540Z,11.98
2023-01-31T10:06:07.423Z,11.91
2023-01-31T10:08:44.118Z,11.80
2023-01-31T10:11:13.308Z,11.90
2023-01-31T10:13:47.863Z,12.47
2023-01-31T10:16:14.981Z,12.18
2023-01-31T10:18:43.387Z,11.80
2023-01-31T10:21:11.434Z,12.00
2023-01-31T10:23:46.255Z,11.96
2023-01-31T10:26:15.212Z,12.40
2023-01-31T10:28:49.884Z,12.35
2023-01-31T10:31:29.294Z,13.03
2023-01-31T10:34:02.753Z,11.83
2023-01-31T10:36:48.982Z,11.89
2023-01-31T10:39:30.238Z,11.19
2023-01-31T10:42:17.232Z,13.00
2023-01-31T10:44:54.580Z,13.00
2023-01-31T10:47:24.662Z,12.91
2023-01-31T10:49:51.921Z,12.76
2023-01-31T10:52:38.185Z,12.18
2023-01-31T10:55:27.299Z,12.15
2023-01-31T10:57:54.792Z,11.63
2023-01-31T11:00:23.491Z,12.21
2023-01-31T11:02:50.884Z,11.46
2023-01-31T11:05:19.992Z,11.43
2023-01-31T11:07:47.586Z,12.32
2023-01-31T11:10:25.440Z,11.50
2023-01-31T11:12:54.346Z,11.78
2023-01-31T11:15:23.622Z,11.89
2023-01-31T11:17:50.805Z,12.50
2023-01-31T11:20:22.887Z,11.57
2023-01-31T11:22:50.302Z,12.06
2023-01-31T11:25:22.179Z,11.55
2023-01-31T11:27:49.453Z,11.24
2023-01-31T11:30:28.276Z,10.75
2023-01-31T11:32:56.081Z,10.58
2023-01-31T11:35:27.642Z,10.59
2023-01-31T11:37:59.120Z,9.80
2023-01-31T11:40:36.578Z,9.61
2023-01-31T11:43:04.839Z,9.18
2023-01-31T11:45:36.787Z,9.66
2023-01-31T11:48:08.495Z,9.74
2023-01-31T11:50:37.565Z,9.84
2023-01-31T11:53:14.106Z,9.52
2023-01-31T11:55:41.568Z,9.71
2023-01-31T11:58:28.976Z,9.50
2023-01-31T12:00:59.512Z,9.43
2023-01-31T12:03:27.233Z,9.17
2023-01-31T12:06:07.341Z,9.41
2023-01-31T12:08:36.231Z,9.03
2023-01-31T12:11:04.939Z,9.13
2023-01-31T12:13:32.198Z,9.49
2023-01-31T12:16:00.483Z,9.07
2023-01-31T12:18:41.923Z,8.69
2023-01-31T12:21:12.487Z,8.66
2023-01-31T12:23:39.725Z,8.74
2023-01-31T12:26:30.251Z,8.93
2023-01-31T12:29:00.613Z,8.54
2023-01-31T12:31:37.092Z,8.84
2023-01-31T12:34:11.476Z,9.03
2023-01-31T12:36:38.684Z,8.77
2023-01-31T12:39:18.649Z,8.44
2023-01-31T12:41:45.789Z,8.46
2023-01-31T12:44:32.323Z,8.76
2023-01-31T12:47:11.946Z,8.80
2023-01-31T12:49:58.581Z,8.01
2023-01-31T12:52:29.150Z,8.72
2023-01-31T12:55:15.789Z,9.13
2023-01-31T12:57:58.464Z,8.61
2023-01-31T13:00:32.160Z,8.16
2023-01-31T13:02:59.404Z,8.45
2023-01-31T13:05:31.375Z,7.22
2023-01-31T13:08:01.758Z,7.69
2023-01-31T13:10:31.067Z,8.28
2023-01-31T13:12:58.292Z,8.92
2023-01-31T13:15:34.904Z,8.78
2023-01-31T13:18:04.085Z,8.61
2023-01-31T13:20:43.523Z,9.34
2023-01-31T13:23:15.860Z,8.56
2023-01-31T13:25:49.158Z,8.63
2023-01-31T13:28:24.090Z,8.20
2023-01-31T13:30:58.576Z,8.40
2023-01-31T13:33:26.050Z,8.18
2023-01-31T13:36:08.527Z,7.86
2023-01-31T13:38:40.049Z,8.80
2023-01-31T13:41:08.298Z,9.08
2023-01-31T13:43:35.787Z,9.14
2023-01-31T13:46:04.128Z,8.39
2023-01-31T13:48:33.751Z,9.34
2023-01-31T13:51:04.296Z,9.12
2023-01-31T13:53:36.096Z,9.22
2023-01-31T13:56:03.634Z,8.91
2023-01-31T13:58:35.334Z,8.25
2023-01-31T14:01:07.373Z,9.26
2023-01-31T14:03:53.613Z,8.49
2023-01-31T14:06:20.750Z,7.98
2023-01-31T14:08:49.963Z,8.71
2023-01-31T14:11:17.110Z,8.38
2023-01-31T14:13:47.916Z,8.22
2023-01-31T14:16:30.646Z,9.07
2023-01-31T14:18:57.862Z,8.77
2023-01-31T14:21:31.304Z,9.44
2023-01-31T14:23:59.604Z,9.31
2023-01-31T14:26:33.014Z,9.53
2023-01-31T14:29:00.230Z,8.79
2023-01-31T14:31:27.855Z,8.40
2023-01-31T14:33:57.452Z,8.77
2023-01-31T14:36:36.982Z,8.72
2023-01-31T14:39:04.432Z,9.47
2023-01-31T14:41:34.356Z,8.84
2023-01-31T14:44:12.372Z,8.95
2023-01-31T14:46:50.408Z,8.69
2023-01-31T14:49:36.401Z,8.97
2023-01-31T14:52:06.621Z,8.89
2023-01-31T14:54:36.932Z,8.60
2023-01-31T14:57:04.309Z,8.60
2023-01-31T14:59:35.503Z,8.39
2023-01-31T15:02:41.461Z,9.22
2023-01-31T15:05:11.790Z,8.49
2023-01-31T15:08:01.727Z,9.16
2023-01-31T15:10:48.066Z,8.40
2023-01-31T15:13:34.184Z,8.37
2023-01-31T15:16:05.558Z,8.48
2023-01-31T15:18:33.110Z,8.33
2023-01-31T15:21:01.448Z,8.49
2023-01-31T15:23:29.262Z,8.46
2023-01-31T15:25:57.158Z,8.76
2023-01-31T15:28:28.568Z,8.54
2023-01-31T15:30:57.146Z,8.67
2023-01-31T15:33:57.165Z,9.36
2023-01-31T15:36:27.356Z,9.60
2023-01-31T15:38:55.591Z,9.95
2023-01-31T15:41:25.065Z,9.75
2023-01-31T15:43:53.700Z,10.01
2023-01-31T15:46:21.804Z,10.21
2023-01-31T15:48:49.193Z,10.27
2023-01-31T15:51:18.479Z,10.16
2023-01-31T15:53:45.958Z,10.21
2023-01-31T15:56:17.641Z,10.68
2023-01-31T15:58:49.535Z,10.85
2023-01-31T16:01:17.677Z,10.91
2023-01-31T16:03:58.277Z,11.10
2023-01-31T16:06:37.854Z,10.72
2023-01-31T16:09:05.794Z,10.83
2023-01-31T16:11:34.211Z,10.99
2023-01-31T16:14:05.447Z,10.78
2023-01-31T16:16:36.110Z,10.87
2023-01-31T16:19:03.526Z,10.87
2023-01-31T16:21:32.325Z,11.06
2023-01-31T16:24:11.839Z,11.11
2023-01-31T16:26:39.968Z,11.18
2023-01-31T16:29:08.478Z,11.37
2023-01-31T16:31:45.977Z,11.43
2023-01-31T16:34:19.654Z,11.51
2023-01-31T16:36:49.965Z,11.41
2023-01-31T16:39:36.472Z,11.34
2023-01-31T16:42:04.483Z,11.41
2023-01-31T16:44:35.911Z,11.37
2023-01-31T16:47:04.457Z,11.41
2023-01-31T16:49:34.094Z,11.20
2023-01-31T16:52:01.226Z,11.41
2023-01-31T16:54:31.001Z,11.35
2023-01-31T16:57:01.672Z,11.12
2023-01-31T16:59:39.223Z,11.15
2023-01-31T17:02:12.868Z,11.20
2023-01-31T17:04:40.807Z,11.30
2023-01-31T17:07:13.138Z,11.26
2023-01-31T17:09:40.493Z,11.09
2023-01-31T17:12:12.144Z,10.53
2023-01-31T17:14:39.313Z,10.55
2023-01-31T17:17:12.669Z,10.27
2023-01-31T17:19:43.616Z,10.36
2023-01-31T17:22:10.934Z,10.35
2023-01-31T17:24:38.239Z,10.17
2023-01-31T17:27:06.013Z,10.27
2023-01-31T17:29:33.245Z,10.00
2023-01-31T17:32:01.446Z,9.70
2023-01-31T17:34:30.211Z,9.66
2023-01-31T17:36:57.565Z,9.56
2023-01-31T17:39:27.103Z,9.32
2023-01-31T17:41:54.852Z,9.25
2023-01-31T17:44:22.472Z,9.36
2023-01-31T17:46:49.993Z,9.16
2023-01-31T17:49:17.687Z,9.30
2023-01-31T17:51:45.524Z,9.38
2023-01-31T17:54:12.869Z,9.36
2023-01-31T17:56:40.712Z,9.65
2023-01-31T17:59:12.319Z,9.59
2023-01-31T18:01:42.749Z,9.69
2023-01-31T18:04:10.492Z,9.73
2023-01-31T18:06:37.834Z,9.68
2023-01-31T18:09:06.165Z,9.45
2023-01-31T18:11:33.834Z,9.83
2023-01-31T18:14:03.356Z,10.03
2023-01-31T18:16:30.906Z,10.16
2023-01-31T18:18:58.619Z,9.76
2023-01-31T18:21:26.327Z,10.04
2023-01-31T18:23:54.479Z,10.24
2023-01-31T18:26:22.671Z,10.25
2023-01-31T18:28:49.905Z,10.38
2023-01-31T18:31:17.665Z,10.44
2023-01-31T18:33:46.409Z,10.48
2023-01-31T18:36:15.042Z,10.58
2023-01-31T18:38:57.808Z,10.63
2023-01-31T18:41:25.477Z,10.58
2023-01-31T18:43:52.877Z,10.58
2023-01-31T18:46:23.830Z,10.73
2023-01-31T18:48:51.531Z,10.80
2023-01-31T18:51:19.136Z,10.88
2023-01-31T18:53:46.883Z,11.04
2023-01-31T18:56:17.046Z,10.77
2023-01-31T18:58:44.776Z,10.57
2023-01-31T19:01:16.643Z,10.79
2023-01-31T19:03:44.962Z,10.89
2023-01-31T19:06:16.724Z,11.13
2023-01-31T19:08:47.009Z,10.00
2023-01-31T19:11:14.959Z,10.43
2023-01-31T19:13:42.957Z,10.56
2023-01-31T19:16:15.201Z,10.60
2023-01-31T19:18:42.649Z,10.18
2023-01-31T19:21:13.977Z,10.33
2023-01-31T19:23:41.659Z,10.37
2023-01-31T19:26:09.831Z,10.41
2023-01-31T19:28:37.891Z,8.76
2023-01-31T19:31:05.922Z,8.74
2023-01-31T19:33:34.452Z,7.78
2023-01-31T19:36:10.766Z,7.91
2023-01-31T19:38:38.465Z,7.72
2023-01-31T19:41:06.032Z,7.79
2023-01-31T19:43:34.528Z,8.12
2023-01-31T19:46:02.159Z,7.49
2023-01-31T19:48:29.560Z,7.60
2023-01-31T19:50:57.178Z,7.94
2023-01-31T19:53:25.129Z,7.06
2023-01-31T19:55:54.090Z,7.27
2023-01-31T19:58:22.187Z,8.02
2023-01-31T20:00:52.107Z,7.45
2023-01-31T20:03:19.662Z,7.48
2023-01-31T20:05:47.516Z,7.55
2023-01-31T20:08:14.761Z,7.83
2023-01-31T20:10:42.509Z,7.72
2023-01-31T20:13:09.894Z,7.58
2023-01-31T20:15:37.308Z,8.12
2023-01-31T20:18:05.486Z,7.97
2023-01-31T20:20:32.921Z,7.56
2023-01-31T20:23:00.337Z,7.97
2023-01-31T20:25:28.015Z,7.62
2023-01-31T20:27:55.440Z,7.73
2023-01-31T20:30:23.506Z,7.59
2023-01-31T20:32:51.576Z,6.94
2023-01-31T20:35:18.848Z,6.91
2023-01-31T20:37:47.316Z,6.74
2023-01-31T20:40:15.059Z,7.44
2023-01-31T20:42:42.412Z,7.40
2023-01-31T20:45:11.329Z,6.76
2023-01-31T20:47:39.193Z,7.16
2023-01-31T20:50:06.665Z,7.20
2023-01-31T20:52:34.437Z,6.90
2023-01-31T20:55:02.018Z,6.86
2023-01-31T20:57:29.379Z,6.86
2023-01-31T20:59:56.669Z,6.96
2023-01-31T21:02:24.281Z,6.52
2023-01-31T21:04:54.815Z,6.72
2023-01-31T21:07:22.087Z,6.54
2023-01-31T21:09:49.888Z,6.64
2023-01-31T21:12:17.180Z,7.08
2023-01-31T21:14:44.541Z,6.71
2023-01-31T21:17:14.060Z,6.95
2023-01-31T21:19:41.357Z,6.89
2023-01-31T21:22:08.685Z,6.98
2023-01-31T21:24:36.845Z,6.68
2023-01-31T21:27:04.233Z,6.74
2023-01-31T21:29:32.719Z,6.49
2023-01-31T21:32:00.470Z,6.53
2023-01-31T21:34:27.922Z,6.36
2023-01-31T21:36:55.126Z,6.59
2023-01-31T21:39:22.624Z,6.53
2023-01-31T21:42:08.266Z,6.38
2023-01-31T21:44:35.806Z,6.76
2023-01-31T21:47:03.075Z,6.73
2023-01-31T21:49:30.218Z,6.75
2023-01-31T21:51:57.694Z,6.91
2023-01-31T21:54:24.886Z,6.53
2023-01-31T21:56:52.062Z,6.88
2023-01-31T21:59:19.615Z,6.71
2023-01-31T22:01:46.914Z,7.06
2023-01-31T22:04:20.519Z,6.94
2023-01-31T22:06:50.608Z,6.94
2023-01-31T22:09:18.433Z,6.62
2023-01-31T22:11:47.524Z,6.95
2023-01-31T22:14:15.615Z,7.13
2023-01-31T22:16:43.345Z,6.36
2023-01-31T22:19:11.534Z,6.18
2023-01-31T22:21:38.778Z,6.60
2023-01-31T22:24:06.821Z,6.67
2023-01-31T22:26:35.229Z,6.56
2023-01-31T22:29:03.113Z,6.93
2023-01-31T22:31:30.946Z,6.79
2023-01-31T22:33:59.992Z,6.99
2023-01-31T22:36:27.465Z,7.23
2023-01-31T22:38:54.926Z,7.08
2023-01-31T22:41:22.246Z,6.91
2023-01-31T22:43:50.016Z,7.27
2023-01-31T22:46:19.306Z,7.58
2023-01-31T22:48:49.316Z,7.38
2023-01-31T22:51:18.449Z,7.14
2023-01-31T22:53:46.118Z,7.02
2023-01-31T22:56:18.076Z,7.20
2023-01-31T22:58:45.744Z,7.36
2023-01-31T23:01:14.304Z,7.73
2023-01-31T23:03:41.617Z,8.17
2023-01-31T23:06:09.238Z,8.29
2023-01-31T23:08:36.574Z,8.63
2023-01-31T23:11:05.281Z,8.72
2023-01-31T23:13:32.985Z,8.73
2023-01-31T23:16:00.294Z,8.87
2023-01-31T23:18:27.535Z,8.91
2023-01-31T23:20:54.980Z,8.98
2023-01-31T23:23:22.225Z,9.08
2023-01-31T23:25:49.408Z,9.10
2023-01-31T23:28:16.822Z,9.19
2023-01-31T23:30:46.668Z,9.31
2023-01-31T23:33:13.945Z,9.44
2023-01-31T23:35:41.455Z,9.38
2023-01-31T23:38:08.661Z,9.68
2023-01-31T23:40:35.857Z,9.72
2023-01-31T23:43:03.308Z,9.67
2023-01-31T23:45:30.776Z,9.45
2023-01-31T23:47:58.015Z,9.79
2023-01-31T23:50:25.678Z,9.77
2023-01-31T23:52:52.852Z,9.85
2023-01-31T23:55:22.667Z,9.42
2023-01-31T23:57:50.505Z,9.22
